Pagina principale
METAR-TAF:

METAR-TAF

Aeroporti :

Aeroporto di Latina

Latina, Italia

latitudine: 41-33N, longitudine: 012-54E, altezza: 25 m

Osservazione

Il bollettino è stato emesso 10 ore e 3 minuti fa, alle 17:55 UTC
Vento 2 kt da sud
Temperature 12°C
Umidità 88%
Pressione 1025 hPa
Visibilità: 4000 m
foschia

METAR: LIRL 261755Z 18002KT 4000 BR NSC 12/10 Q1025 RMK SKC MON INVIS NC VIS MIN 4000 WIND THR12 /////KT WIND THR30 18002KT GRN

Ora: 04:58 (03:58 UTC)

Previsione

Il bollettino è stato emesso 13 ore e 58 minuti fa, alle 14:00 UTC
Previsione valida dal 26 alle 15 UTC al 26 alle 24 UTC
Vento 3 kt da direzioni variabili
Visibilità: 7000 m
Evoluzione graduale
dal 26 alle 20 UTC al 26 alle 22 UTC
Visibilità: 3000 m
Nubi sparse ad un'altezza di 1000 ft
foschia

TAF: LIRL 261400Z 2615/2624 VRB03KT 7000 NSC BECMG 2620/2622 3000 BR SCT010

Osservazioni e previsioni meteorologiche di più di 4000 aeroporti (messaggi METAR e TAF).

Le stazioni disponibili sono rappresentate dai dischi gialli e rossi sulla carta.

Puntare il mouse per vedere il nome della stazione.

Clicca sopra per visualizzare le osservazioni e previsioni meteorologiche.

Per cambiare la mappa : fare clic sui pulsanti verdi con una croce nera per ingrandire, il pulsante verde con un trattino per diminuire, o sulla freccia verde per le mappe adiacenti.


METAR-TAF: